Alligator Point, Florida
Current Conditions -  °F | °C
As of 6:10 AM on Monday 22 Dec 2014 (Local Time) from KTLH Reporting Station
Haze Haze  
Wind Chill: 57°   Ceiling: 200
Heat Index: 57°   Visibility: 0.75mi
Dew Point: 54°   Wind: 3mph
Humidity: 89%   Direction: 90°E
Pressure: 29.95"   Gusts: NA
Location:  30.0223°N, 84.3911°W
Report Text: KTLH 221110Z 09003KT 3/4SM BR OVC002 14/12 A2995 RMK AO2 T01390122 $
Loading
Personal Weather Stations






























Interactive Weather Map New forecast layout! Learn more

10-Day Weather Forecast

Advertisements
Track Severe Weather on mobile